createdAt,value
2022-11-09T00:00:41.881Z,7.03
2022-11-09T00:03:08.373Z,7.82
2022-11-09T00:05:35.249Z,7.97
2022-11-09T00:08:01.755Z,7.00
2022-11-09T00:10:28.988Z,8.77
2022-11-09T00:12:55.701Z,6.70
2022-11-09T00:15:22.208Z,6.97
2022-11-09T00:17:48.717Z,7.18
2022-11-09T00:20:15.456Z,7.43
2022-11-09T00:22:42.215Z,7.97
2022-11-09T00:25:09.202Z,7.25
2022-11-09T00:27:35.704Z,6.95
2022-11-09T00:30:02.243Z,9.45
2022-11-09T00:32:28.821Z,7.03
2022-11-09T00:34:55.330Z,7.43
2022-11-09T00:37:22.085Z,8.23
2022-11-09T00:39:48.629Z,9.25
2022-11-09T00:42:15.266Z,8.15
2022-11-09T00:44:41.895Z,7.80
2022-11-09T00:47:08.585Z,8.27
2022-11-09T00:49:35.201Z,7.93
2022-11-09T00:52:01.695Z,8.15
2022-11-09T00:54:28.144Z,6.53
2022-11-09T00:56:54.682Z,7.93
2022-11-09T00:59:21.196Z,7.60
2022-11-09T01:01:47.724Z,7.22
2022-11-09T01:04:14.244Z,6.47
2022-11-09T01:06:40.827Z,6.45
2022-11-09T01:09:07.313Z,6.60
2022-11-09T01:11:33.757Z,6.13
2022-11-09T01:14:00.599Z,6.55
2022-11-09T01:16:27.296Z,7.32
2022-11-09T01:18:58.621Z,6.65
2022-11-09T01:21:26.631Z,6.37
2022-11-09T01:23:53.550Z,7.10
2022-11-09T01:26:20.208Z,6.60
2022-11-09T01:28:46.812Z,6.82
2022-11-09T01:31:18.733Z,7.38
2022-11-09T01:33:45.803Z,7.00
2022-11-09T01:36:15.561Z,6.32
2022-11-09T01:38:42.747Z,6.50
2022-11-09T01:41:14.372Z,7.50
2022-11-09T01:43:41.181Z,8.85
2022-11-09T01:46:22.555Z,7.43
2022-11-09T01:48:53.637Z,7.60
2022-11-09T01:51:42.669Z,6.50
2022-11-09T01:54:20.036Z,7.15
2022-11-09T01:56:49.792Z,5.55
2022-11-09T01:59:21.776Z,5.80
2022-11-09T02:01:49.525Z,7.18
2022-11-09T02:04:24.115Z,9.35
2022-11-09T02:06:51.661Z,6.63
2022-11-09T02:09:48.118Z,8.18
2022-11-09T02:12:16.023Z,6.70
2022-11-09T02:14:43.317Z,7.50
2022-11-09T02:17:10.078Z,6.35
2022-11-09T02:19:36.568Z,6.82
2022-11-09T02:22:03.558Z,7.00
2022-11-09T02:24:30.757Z,6.90
2022-11-09T02:26:57.476Z,6.78
2022-11-09T02:29:29.776Z,6.78
2022-11-09T02:32:00.951Z,6.70
2022-11-09T02:34:27.644Z,6.53
2022-11-09T02:36:54.236Z,6.97
2022-11-09T02:39:25.662Z,6.50
2022-11-09T02:42:20.962Z,7.03
2022-11-09T02:44:51.634Z,7.03
2022-11-09T02:47:18.136Z,6.72
2022-11-09T02:49:44.699Z,7.43
2022-11-09T02:52:11.231Z,7.47
2022-11-09T02:54:38.006Z,7.03
2022-11-09T02:57:05.039Z,6.72
2022-11-09T02:59:32.165Z,6.88
2022-11-09T03:01:59.093Z,6.63
2022-11-09T03:04:25.631Z,7.10
2022-11-09T03:06:52.560Z,7.88
2022-11-09T03:09:19.163Z,7.32
2022-11-09T03:11:45.676Z,6.93
2022-11-09T03:14:12.315Z,7.00
2022-11-09T03:16:39.797Z,6.72
2022-11-09T03:19:07.697Z,6.57
2022-11-09T03:21:35.419Z,7.57
2022-11-09T03:24:02.441Z,6.38
2022-11-09T03:26:29.002Z,7.20
2022-11-09T03:28:55.594Z,7.03
2022-11-09T03:31:22.273Z,6.72
2022-11-09T03:33:50.027Z,7.63
2022-11-09T03:36:16.599Z,7.88
2022-11-09T03:38:43.169Z,9.20
2022-11-09T03:41:09.647Z,7.85
2022-11-09T03:43:36.280Z,7.65
2022-11-09T03:46:02.876Z,6.53
2022-11-09T03:48:29.373Z,6.97
2022-11-09T03:50:55.882Z,7.13
2022-11-09T03:53:22.577Z,6.47
2022-11-09T03:55:49.572Z,7.53
2022-11-09T03:58:16.125Z,6.35
2022-11-09T04:00:42.748Z,8.60
2022-11-09T04:03:09.275Z,8.27
2022-11-09T04:05:35.931Z,6.63
2022-11-09T04:08:02.432Z,7.05
2022-11-09T04:10:28.980Z,6.90
2022-11-09T04:12:55.588Z,6.40
2022-11-09T04:15:22.282Z,7.33
2022-11-09T04:18:00.047Z,6.68
2022-11-09T04:20:28.623Z,6.82
2022-11-09T04:23:03.108Z,7.78
2022-11-09T04:25:33.110Z,6.65
2022-11-09T04:28:00.765Z,7.17
2022-11-09T04:30:28.857Z,6.03
2022-11-09T04:32:59.849Z,6.60
2022-11-09T04:35:28.045Z,6.70
2022-11-09T04:38:00.085Z,6.18
2022-11-09T04:40:29.709Z,6.50
2022-11-09T04:42:59.733Z,6.68
2022-11-09T04:45:26.517Z,5.88
2022-11-09T04:47:58.905Z,6.55
2022-11-09T04:50:25.525Z,9.50
2022-11-09T04:52:52.326Z,6.63
2022-11-09T04:55:19.053Z,7.15
2022-11-09T04:57:45.822Z,8.13
2022-11-09T05:00:13.060Z,6.40
2022-11-09T05:02:40.529Z,6.97
2022-11-09T05:05:07.457Z,6.87
2022-11-09T05:07:34.160Z,6.40
2022-11-09T05:10:00.705Z,7.47
2022-11-09T05:12:27.382Z,7.20
2022-11-09T05:14:53.997Z,7.10
2022-11-09T05:17:20.504Z,7.37
2022-11-09T05:19:47.036Z,7.15
2022-11-09T05:22:32.088Z,7.70
2022-11-09T05:24:58.637Z,7.38
2022-11-09T05:27:25.283Z,8.80
2022-11-09T05:29:51.816Z,7.43
2022-11-09T05:32:18.326Z,7.53
2022-11-09T05:34:44.764Z,7.70
2022-11-09T05:37:11.311Z,6.85
2022-11-09T05:39:37.839Z,7.47
2022-11-09T05:42:04.371Z,6.43
2022-11-09T05:44:30.926Z,7.68
2022-11-09T05:46:57.505Z,7.53
2022-11-09T05:49:23.974Z,7.80
2022-11-09T05:51:50.489Z,7.60
2022-11-09T05:54:16.979Z,7.13
2022-11-09T05:56:43.529Z,6.93
2022-11-09T05:59:10.018Z,7.25
2022-11-09T06:01:36.858Z,6.85
2022-11-09T06:04:03.531Z,8.00
2022-11-09T06:06:30.308Z,7.50
2022-11-09T06:08:56.842Z,8.15
2022-11-09T06:11:24.482Z,7.40
2022-11-09T06:13:52.785Z,7.78
2022-11-09T06:16:19.593Z,7.05
2022-11-09T06:18:46.183Z,8.33
2022-11-09T06:21:12.816Z,6.78
2022-11-09T06:23:39.391Z,8.48
2022-11-09T06:26:09.168Z,7.35
2022-11-09T06:28:37.689Z,6.65
2022-11-09T06:31:06.331Z,8.67
2022-11-09T06:33:34.864Z,7.65
2022-11-09T06:36:02.556Z,8.07
2022-11-09T06:38:29.527Z,7.75
2022-11-09T06:40:58.226Z,7.40
2022-11-09T06:43:25.747Z,6.50
2022-11-09T06:45:52.657Z,8.10
2022-11-09T06:48:20.077Z,9.00
2022-11-09T06:50:46.617Z,7.07
2022-11-09T06:53:15.327Z,6.60
2022-11-09T06:55:47.198Z,7.43
2022-11-09T06:58:16.811Z,8.85
2022-11-09T07:00:44.514Z,6.38
2022-11-09T07:03:15.459Z,7.20
2022-11-09T07:05:42.208Z,6.93
2022-11-09T07:08:08.938Z,7.53
2022-11-09T07:10:36.310Z,8.13
2022-11-09T07:13:03.303Z,7.40
2022-11-09T07:15:30.082Z,6.50
2022-11-09T07:17:58.212Z,7.03
2022-11-09T07:20:25.910Z,7.87
2022-11-09T07:22:52.539Z,9.48
2022-11-09T07:25:19.689Z,8.20
2022-11-09T07:27:46.415Z,8.35
2022-11-09T07:30:13.420Z,9.23
2022-11-09T07:33:07.537Z,8.73
2022-11-09T07:35:27.894Z,7.53
2022-11-09T07:37:54.748Z,7.95
2022-11-09T07:40:21.266Z,8.10
2022-11-09T07:42:47.953Z,7.68
2022-11-09T07:45:14.493Z,7.43
2022-11-09T07:47:41.055Z,9.32
2022-11-09T07:50:07.805Z,9.07
2022-11-09T07:52:34.302Z,10.82
2022-11-09T07:55:00.820Z,7.93
2022-11-09T07:57:27.445Z,7.93
2022-11-09T07:59:54.141Z,8.40
2022-11-09T08:02:20.744Z,9.88
2022-11-09T08:04:47.344Z,8.98
2022-11-09T08:07:14.214Z,7.82
2022-11-09T08:09:40.755Z,8.10
2022-11-09T08:12:07.341Z,7.43
2022-11-09T08:14:33.958Z,8.50
2022-11-09T08:17:00.450Z,8.32
2022-11-09T08:19:26.986Z,9.18
2022-11-09T08:21:57.314Z,7.33
2022-11-09T08:24:24.438Z,7.63
2022-11-09T08:26:51.092Z,8.98
2022-11-09T08:29:17.604Z,7.57
2022-11-09T08:31:44.282Z,8.18
2022-11-09T08:34:13.908Z,8.67
2022-11-09T08:36:40.760Z,10.50
2022-11-09T08:39:08.656Z,9.02
2022-11-09T08:41:35.197Z,8.48
2022-11-09T08:44:01.971Z,7.85
2022-11-09T08:46:28.578Z,9.27
2022-11-09T08:48:55.211Z,8.52
2022-11-09T08:51:21.864Z,8.18
2022-11-09T08:53:48.346Z,8.63
2022-11-09T08:56:18.341Z,7.65
2022-11-09T08:58:45.651Z,7.60
2022-11-09T09:01:17.015Z,7.40
2022-11-09T09:03:44.420Z,8.18
2022-11-09T09:06:10.967Z,7.10
2022-11-09T09:08:37.491Z,8.27
2022-11-09T09:11:05.364Z,8.37
2022-11-09T09:13:32.925Z,7.45
2022-11-09T09:16:09.378Z,7.38
2022-11-09T09:18:35.975Z,7.57
2022-11-09T09:21:05.853Z,8.05
2022-11-09T09:23:33.358Z,7.93
2022-11-09T09:25:59.887Z,9.45
2022-11-09T09:28:26.439Z,7.93
2022-11-09T09:30:53.315Z,7.95
2022-11-09T09:33:19.817Z,7.45
2022-11-09T09:35:46.268Z,8.63
2022-11-09T09:38:12.931Z,6.97
2022-11-09T09:41:05.798Z,7.82
2022-11-09T09:43:43.716Z,7.85
2022-11-09T09:46:25.761Z,9.80
2022-11-09T09:49:02.316Z,6.73
2022-11-09T09:51:40.404Z,7.35
2022-11-09T09:54:15.627Z,6.90
2022-11-09T09:56:45.595Z,7.43
2022-11-09T09:59:21.685Z,6.82
2022-11-09T10:01:49.033Z,8.33
2022-11-09T10:04:19.095Z,8.80
2022-11-09T10:07:05.349Z,6.88
2022-11-09T10:09:38.752Z,6.90
2022-11-09T10:12:18.354Z,7.82
2022-11-09T10:15:06.972Z,7.30
2022-11-09T10:17:40.595Z,7.68
2022-11-09T10:20:30.085Z,6.57
2022-11-09T10:23:25.907Z,7.93
2022-11-09T10:26:04.852Z,6.80
2022-11-09T10:29:01.224Z,7.03
2022-11-09T10:31:23.539Z,7.32
2022-11-09T10:33:55.912Z,6.68
2022-11-09T10:36:28.448Z,6.13
2022-11-09T10:38:58.614Z,6.38
2022-11-09T10:41:33.282Z,7.20
2022-11-09T10:43:59.997Z,6.20
2022-11-09T10:46:26.649Z,7.85
2022-11-09T10:48:55.561Z,7.63
2022-11-09T10:51:40.348Z,7.65
2022-11-09T10:54:21.614Z,6.30
2022-11-09T10:57:05.915Z,6.75
2022-11-09T10:59:44.345Z,6.72
2022-11-09T11:02:26.444Z,6.13
2022-11-09T11:05:18.676Z,6.85
2022-11-09T11:07:46.496Z,6.17
2022-11-09T11:10:15.924Z,7.07
2022-11-09T11:12:44.484Z,7.20
2022-11-09T11:15:28.981Z,6.68
2022-11-09T11:18:03.711Z,6.07
2022-11-09T11:20:33.932Z,7.60
2022-11-09T11:23:17.798Z,6.55
2022-11-09T11:25:53.814Z,8.70
2022-11-09T11:28:30.609Z,6.45
2022-11-09T11:30:57.446Z,6.13
2022-11-09T11:33:24.174Z,7.27
2022-11-09T11:36:07.703Z,6.78
2022-11-09T11:38:43.038Z,6.85
2022-11-09T11:41:31.085Z,6.38
2022-11-09T11:44:10.567Z,7.22
2022-11-09T11:47:20.965Z,6.23
2022-11-09T11:50:02.961Z,7.50
2022-11-09T11:53:07.848Z,7.78
2022-11-09T11:55:44.937Z,7.07
2022-11-09T11:58:48.428Z,6.53
2022-11-09T12:01:30.169Z,7.20
2022-11-09T12:03:56.624Z,6.05
2022-11-09T12:06:37.323Z,7.00
2022-11-09T12:09:21.138Z,6.70
2022-11-09T12:11:53.774Z,7.05
2022-11-09T12:14:49.065Z,5.80
2022-11-09T12:17:38.017Z,6.20
2022-11-09T12:20:26.138Z,7.22
2022-11-09T12:23:05.568Z,5.85
2022-11-09T12:25:32.118Z,5.88
2022-11-09T12:28:13.802Z,4.77
2022-11-09T12:30:51.341Z,6.32
2022-11-09T12:33:43.386Z,5.97
2022-11-09T12:36:29.404Z,5.70
2022-11-09T12:39:22.069Z,5.18
2022-11-09T12:41:49.728Z,4.67
2022-11-09T12:44:22.349Z,5.28
2022-11-09T12:46:57.048Z,5.28
2022-11-09T12:49:39.765Z,5.32
2022-11-09T12:52:08.402Z,5.38
2022-11-09T12:54:36.998Z,6.63
2022-11-09T12:57:07.755Z,5.03
2022-11-09T12:59:37.028Z,5.75
2022-11-09T13:02:05.226Z,5.45
2022-11-09T13:04:32.393Z,6.20
2022-11-09T13:07:14.459Z,5.30
2022-11-09T13:09:45.162Z,6.35
2022-11-09T13:12:20.406Z,5.20
2022-11-09T13:14:46.949Z,6.40
2022-11-09T13:17:28.579Z,5.50
2022-11-09T13:19:56.643Z,4.57
2022-11-09T13:22:23.211Z,4.80
2022-11-09T13:24:57.147Z,5.40
2022-11-09T13:27:44.468Z,5.30
2022-11-09T13:30:28.243Z,5.60
2022-11-09T13:33:07.901Z,4.43
2022-11-09T13:35:40.631Z,6.63
2022-11-09T13:38:25.187Z,5.18
2022-11-09T13:40:55.191Z,4.97
2022-11-09T13:43:32.521Z,4.68
2022-11-09T13:46:01.665Z,6.17
2022-11-09T13:48:47.378Z,5.60
2022-11-09T13:51:23.191Z,5.05
2022-11-09T13:54:00.112Z,4.93
2022-11-09T13:56:29.855Z,6.40
2022-11-09T13:59:14.716Z,4.87
2022-11-09T14:01:49.122Z,4.88
2022-11-09T14:04:25.026Z,4.95
2022-11-09T14:07:22.590Z,5.05
2022-11-09T14:10:16.612Z,5.65
2022-11-09T14:12:56.900Z,5.60
2022-11-09T14:15:36.705Z,5.40
2022-11-09T14:18:15.456Z,5.68
2022-11-09T14:20:55.409Z,5.80
2022-11-09T14:23:28.163Z,5.80
2022-11-09T14:25:55.596Z,6.27
2022-11-09T14:28:29.728Z,5.78
2022-11-09T14:30:57.037Z,5.93
2022-11-09T14:33:28.901Z,4.60
2022-11-09T14:35:57.816Z,6.03
2022-11-09T14:38:26.405Z,5.33
2022-11-09T14:40:54.019Z,5.60
2022-11-09T14:43:35.136Z,5.63
2022-11-09T14:46:04.597Z,5.38
2022-11-09T14:48:32.926Z,6.68
2022-11-09T14:51:04.589Z,5.50
2022-11-09T14:53:41.154Z,7.35
2022-11-09T14:56:11.247Z,5.80
2022-11-09T14:58:41.130Z,7.93
2022-11-09T15:01:24.257Z,6.38
2022-11-09T15:04:05.998Z,6.97
2022-11-09T15:06:33.774Z,7.85
2022-11-09T15:09:04.680Z,5.70
2022-11-09T15:11:37.125Z,6.05
2022-11-09T15:14:19.037Z,6.55
2022-11-09T15:16:48.303Z,6.80
2022-11-09T15:19:52.897Z,5.90
2022-11-09T15:22:44.498Z,5.57
2022-11-09T15:25:25.693Z,6.43
2022-11-09T15:28:12.865Z,6.75
2022-11-09T15:30:54.136Z,6.27
2022-11-09T15:33:42.788Z,7.00
2022-11-09T15:36:32.609Z,7.72
2022-11-09T15:39:19.929Z,6.75
2022-11-09T15:41:46.655Z,7.70
2022-11-09T15:44:14.287Z,6.90
2022-11-09T15:46:50.648Z,8.27
2022-11-09T15:49:26.529Z,6.50
2022-11-09T15:51:53.625Z,6.20
2022-11-09T15:54:22.170Z,7.03
2022-11-09T15:56:48.909Z,7.37
2022-11-09T15:59:24.523Z,6.90
2022-11-09T16:01:51.224Z,7.40
2022-11-09T16:04:18.140Z,6.55
2022-11-09T16:06:46.695Z,6.55
2022-11-09T16:09:14.669Z,7.73
2022-11-09T16:11:41.308Z,6.93
2022-11-09T16:14:07.986Z,7.00
2022-11-09T16:16:34.516Z,6.57
2022-11-09T16:19:01.345Z,7.35
2022-11-09T16:21:27.965Z,6.37
2022-11-09T16:23:58.487Z,8.20
2022-11-09T16:26:25.865Z,8.40
2022-11-09T16:28:54.490Z,7.88
2022-11-09T16:31:41.173Z,9.23
2022-11-09T16:34:07.829Z,9.13
2022-11-09T16:36:34.598Z,10.02
2022-11-09T16:39:06.255Z,10.55
2022-11-09T16:41:33.029Z,10.52
2022-11-09T16:43:59.654Z,11.38
2022-11-09T16:46:28.970Z,10.33
2022-11-09T16:48:56.091Z,10.65
2022-11-09T16:51:22.727Z,8.75
2022-11-09T16:53:49.388Z,7.65
2022-11-09T16:56:17.025Z,7.32
2022-11-09T16:58:44.086Z,8.13
2022-11-09T17:01:12.914Z,6.95
2022-11-09T17:03:40.673Z,7.97
2022-11-09T17:06:10.918Z,7.18
2022-11-09T17:08:39.238Z,6.50
2022-11-09T17:11:11.029Z,7.97
2022-11-09T17:13:38.670Z,7.22
2022-11-09T17:16:08.427Z,8.35
2022-11-09T17:18:37.551Z,8.52
2022-11-09T17:21:09.072Z,7.93
2022-11-09T17:23:35.705Z,8.67
2022-11-09T17:26:04.819Z,9.52
2022-11-09T17:28:32.080Z,7.38
2022-11-09T17:30:58.927Z,9.35
2022-11-09T17:33:25.569Z,7.55
2022-11-09T17:35:59.802Z,7.77
2022-11-09T17:38:26.485Z,7.32
2022-11-09T17:40:54.384Z,7.00
2022-11-09T17:43:20.969Z,6.95
2022-11-09T17:45:47.446Z,7.15
2022-11-09T17:48:13.943Z,9.43
2022-11-09T17:50:40.634Z,10.57
2022-11-09T17:53:07.191Z,8.15
2022-11-09T17:55:36.434Z,8.48
2022-11-09T17:58:03.030Z,10.02
2022-11-09T18:00:29.761Z,8.83
2022-11-09T18:02:56.549Z,8.27
2022-11-09T18:05:23.104Z,7.95
2022-11-09T18:07:49.596Z,8.27
2022-11-09T18:10:16.211Z,7.88
2022-11-09T18:12:42.774Z,9.73
2022-11-09T18:15:09.746Z,10.52
2022-11-09T18:17:36.393Z,9.73
2022-11-09T18:20:03.443Z,8.48
2022-11-09T18:22:30.013Z,8.15
2022-11-09T18:24:56.597Z,8.33
2022-11-09T18:27:27.560Z,8.45
2022-11-09T18:29:56.950Z,9.00
2022-11-09T18:32:24.118Z,10.07
2022-11-09T18:34:50.827Z,9.93
2022-11-09T18:37:18.373Z,8.30
2022-11-09T18:39:45.158Z,7.72
2022-11-09T18:42:11.837Z,10.60
2022-11-09T18:44:38.484Z,8.55
2022-11-09T18:47:08.497Z,7.60
2022-11-09T18:49:36.366Z,10.47
2022-11-09T18:52:04.879Z,5.80
2022-11-09T18:54:32.443Z,8.57
2022-11-09T18:56:59.049Z,6.00
2022-11-09T18:59:25.646Z,6.88
2022-11-09T19:01:52.426Z,5.17
2022-11-09T19:04:19.245Z,5.63
2022-11-09T19:06:46.497Z,5.72
2022-11-09T19:09:30.016Z,6.10
2022-11-09T19:11:57.586Z,6.35
2022-11-09T19:14:25.110Z,7.00
2022-11-09T19:16:52.246Z,7.32
2022-11-09T19:19:19.590Z,6.10
2022-11-09T19:21:56.626Z,7.45
2022-11-09T19:24:25.696Z,8.40
2022-11-09T19:26:54.489Z,8.23
2022-11-09T19:29:21.527Z,7.35
2022-11-09T19:31:48.741Z,7.82
2022-11-09T19:34:17.876Z,7.93
2022-11-09T19:36:45.970Z,8.85
2022-11-09T19:39:14.615Z,9.57
2022-11-09T19:41:41.691Z,8.68
2022-11-09T19:44:11.248Z,9.57
2022-11-09T19:46:37.785Z,9.02
2022-11-09T19:49:05.392Z,9.52
2022-11-09T19:51:32.309Z,9.80
2022-11-09T19:54:00.258Z,10.10
2022-11-09T19:56:28.578Z,8.32
2022-11-09T19:58:57.125Z,7.57
2022-11-09T20:01:24.057Z,6.63
2022-11-09T20:03:52.339Z,6.83
2022-11-09T20:06:19.582Z,7.35
2022-11-09T20:08:47.782Z,7.38
2022-11-09T20:11:37.004Z,8.23
2022-11-09T20:14:04.732Z,7.30
2022-11-09T20:16:32.786Z,7.47
2022-11-09T20:19:00.842Z,7.32
2022-11-09T20:21:27.734Z,7.90
2022-11-09T20:23:54.672Z,6.68
2022-11-09T20:26:21.531Z,8.00
2022-11-09T20:28:48.113Z,6.97
2022-11-09T20:31:17.180Z,6.28
2022-11-09T20:33:43.902Z,6.68
2022-11-09T20:36:10.753Z,6.60
2022-11-09T20:38:37.447Z,6.60
2022-11-09T20:41:06.922Z,7.40
2022-11-09T20:43:33.725Z,7.30
2022-11-09T20:46:05.792Z,8.15
2022-11-09T20:49:02.141Z,7.70
2022-11-09T20:51:20.288Z,7.35
2022-11-09T20:53:48.191Z,7.37
2022-11-09T20:56:15.552Z,7.53
2022-11-09T20:58:42.361Z,7.78
2022-11-09T21:01:15.541Z,8.02
2022-11-09T21:03:42.931Z,7.55
2022-11-09T21:06:10.388Z,7.80
2022-11-09T21:08:37.530Z,8.18
2022-11-09T21:11:06.249Z,8.52
2022-11-09T21:13:33.033Z,9.77
2022-11-09T21:16:06.741Z,7.93
2022-11-09T21:18:34.003Z,8.47
2022-11-09T21:21:12.115Z,8.30
2022-11-09T21:23:58.163Z,8.30
2022-11-09T21:26:44.016Z,9.55
2022-11-09T21:29:53.924Z,9.02
2022-11-09T21:32:21.798Z,6.80
2022-11-09T21:34:49.020Z,8.60
2022-11-09T21:37:15.961Z,9.50
2022-11-09T21:39:43.602Z,7.82
2022-11-09T21:42:13.747Z,8.25
2022-11-09T21:44:40.431Z,7.90
2022-11-09T21:47:07.716Z,8.30
2022-11-09T21:49:34.667Z,8.32
2022-11-09T21:52:01.842Z,8.27
2022-11-09T21:54:28.526Z,8.32
2022-11-09T21:56:55.984Z,8.53
2022-11-09T21:59:28.746Z,8.57
2022-11-09T22:01:55.423Z,8.25
2022-11-09T22:04:22.081Z,8.70
2022-11-09T22:06:48.819Z,8.50
2022-11-09T22:09:17.730Z,8.23
2022-11-09T22:12:05.435Z,7.03
2022-11-09T22:14:50.751Z,7.85
2022-11-09T22:17:17.332Z,6.80
2022-11-09T22:20:05.348Z,8.52
2022-11-09T22:22:34.019Z,7.83
2022-11-09T22:25:04.626Z,7.22
2022-11-09T22:27:32.174Z,7.75
2022-11-09T22:29:59.126Z,7.20
2022-11-09T22:32:26.196Z,7.18
2022-11-09T22:34:52.869Z,7.23
2022-11-09T22:37:27.155Z,6.93
2022-11-09T22:39:53.823Z,8.63
2022-11-09T22:42:20.411Z,7.45
2022-11-09T22:44:48.125Z,9.82
2022-11-09T22:47:15.115Z,8.53
2022-11-09T22:49:41.927Z,7.60
2022-11-09T22:52:09.489Z,7.57
2022-11-09T22:54:36.317Z,7.63
2022-11-09T22:57:03.825Z,6.22
2022-11-09T22:59:30.533Z,8.57
2022-11-09T23:01:57.488Z,7.93
2022-11-09T23:04:24.516Z,7.32
2022-11-09T23:06:51.187Z,8.05
2022-11-09T23:09:18.082Z,9.23
2022-11-09T23:11:44.886Z,8.13
2022-11-09T23:14:31.503Z,6.18
2022-11-09T23:16:58.081Z,7.47
2022-11-09T23:19:24.721Z,8.43
2022-11-09T23:21:51.368Z,6.32
2022-11-09T23:24:36.669Z,6.80
2022-11-09T23:27:05.484Z,6.32
2022-11-09T23:29:32.232Z,8.35
2022-11-09T23:31:59.119Z,8.10
2022-11-09T23:34:25.831Z,9.43
2022-11-09T23:36:52.439Z,6.63
2022-11-09T23:39:19.036Z,6.88
2022-11-09T23:41:45.617Z,7.47
2022-11-09T23:44:12.438Z,8.02
2022-11-09T23:46:39.032Z,9.52
2022-11-09T23:49:05.584Z,7.13
2022-11-09T23:51:32.205Z,7.40
2022-11-09T23:53:58.811Z,7.13
2022-11-09T23:56:25.445Z,8.07
2022-11-09T23:58:52.045Z,7.88
